Time;durP1;ratioP1;P1;durP2;ratioP2;P2;SDS_P1;SDS_P2;PMS_P1;PMS_P2;Temp;Humidity;BMP_temperature;BMP_pressure;BME280_temperature;BME280_humidity;BME280_pressure;Samples;Min_cycle;Max_cycle;Signal;HPM_P1;HPM_P2
2022/12/15 00:39:20;;;;;;;16.10;13.23;;;-4.80;99.90;;;;;;6176404;23;20439;-53
2022/12/15 00:41:47;;;;;;;16.10;10.97;;;-4.90;99.90;;;;;;6183868;23;20389;-57
2022/12/15 00:44:14;;;;;;;26.10;13.20;;;-4.90;99.90;;;;;;6185068;23;20425;-56
2022/12/15 00:46:55;;;;;;;20.07;10.10;;;-4.90;99.90;;;;;;6185345;23;20389;-59
2022/12/15 01:20:16;;;;;;;19.17;10.33;;;-4.70;99.90;;;;;;6183534;23;20393;-61
2022/12/15 01:22:43;;;;;;;36.13;15.47;;;-4.70;99.90;;;;;;6183603;23;20453;-54
2022/12/15 01:25:11;;;;;;;21.77;12.13;;;-4.70;99.90;;;;;;6182839;23;20480;-57
2022/12/15 01:27:39;;;;;;;18.50;8.63;;;-4.70;99.90;;;;;;6183617;23;20405;-55
2022/12/15 01:30:08;;;;;;;33.13;12.23;;;-4.70;99.90;;;;;;6183634;23;20402;-60
2022/12/15 01:32:35;;;;;;;25.77;14.07;;;-4.70;99.90;;;;;;6182693;23;20437;-61
2022/12/15 01:35:04;;;;;;;29.10;14.97;;;-4.80;99.90;;;;;;6183555;23;20432;-59
2022/12/15 01:37:31;;;;;;;14.53;11.10;;;-4.80;99.90;;;;;;6182939;23;20472;-61
2022/12/15 01:42:44;;;;;;;16.43;7.47;;;-4.80;99.90;;;;;;6177748;23;20449;-63
2022/12/15 01:45:47;;;;;;;25.93;11.80;;;-4.80;99.90;;;;;;6183579;23;20393;-52
2022/12/15 01:48:20;;;;;;;13.83;11.33;;;-4.90;99.90;;;;;;6183909;23;20399;-55
2022/12/15 01:51:09;;;;;;;10.83;8.10;;;-4.90;99.90;;;;;;6178032;23;20387;-62
2022/12/15 01:53:40;;;;;;;18.63;9.77;;;-4.90;99.90;;;;;;6183607;23;20433;-56
2022/12/15 01:56:09;;;;;;;11.90;7.57;;;-5.00;99.90;;;;;;6183295;23;20398;-60
2022/12/15 01:58:42;;;;;;;19.37;11.13;;;-5.00;99.90;;;;;;6183412;23;20457;-57
2022/12/15 02:01:11;;;;;;;24.10;10.83;;;-5.10;99.90;;;;;;6183720;23;20362;-58
2022/12/15 02:03:41;;;;;;;17.50;9.43;;;-5.10;99.90;;;;;;6183386;23;20386;-61
2022/12/15 02:06:09;;;;;;;13.10;11.60;;;-5.20;99.90;;;;;;6183985;23;20393;-59
2022/12/15 02:08:46;;;;;;;13.63;11.27;;;-5.20;99.90;;;;;;6182502;23;20449;-61
2022/12/15 02:11:41;;;;;;;12.40;9.30;;;-5.20;99.90;;;;;;6180583;23;20425;-61
2022/12/15 02:14:10;;;;;;;20.83;12.97;;;-5.30;99.90;;;;;;6184134;23;20378;-58
2022/12/15 02:16:56;;;;;;;17.57;11.03;;;-5.30;99.90;;;;;;6183904;23;20382;-53
2022/12/15 02:19:55;;;;;;;9.23;7.40;;;-5.40;99.90;;;;;;6184355;23;20378;-53
2022/12/15 02:22:37;;;;;;;19.10;11.03;;;-5.40;99.90;;;;;;6133703;23;20409;-60
2022/12/15 02:25:28;;;;;;;23.83;9.07;;;-5.50;99.90;;;;;;6183679;23;20386;-57
2022/12/15 02:28:02;;;;;;;26.87;10.93;;;-5.40;99.90;;;;;;6176815;23;20425;-63
2022/12/15 02:30:44;;;;;;;21.67;13.50;;;-5.50;99.90;;;;;;6153545;23;20377;-60
2022/12/15 02:33:20;;;;;;;22.33;10.63;;;-5.70;99.90;;;;;;6153222;23;20372;-58
2022/12/15 02:35:57;;;;;;;17.13;10.37;;;-5.50;99.90;;;;;;6153488;23;20433;-57
2022/12/15 02:38:33;;;;;;;20.40;9.73;;;-5.40;99.90;;;;;;6147446;23;20395;-56
2022/12/15 02:41:00;;;;;;;17.17;8.77;;;-5.40;99.90;;;;;;6152337;23;20402;-64
2022/12/15 02:43:43;;;;;;;14.20;8.57;;;-5.50;99.90;;;;;;6151564;23;20399;-55
2022/12/15 02:46:26;;;;;;;14.73;10.67;;;-5.50;99.90;;;;;;6153904;23;20401;-54
2022/12/15 02:49:08;;;;;;;30.37;14.83;;;-5.50;99.90;;;;;;6153630;23;20466;-58
2022/12/15 02:51:49;;;;;;;40.60;14.00;;;-5.50;99.90;;;;;;6153797;23;20375;-59
2022/12/15 02:54:37;;;;;;;11.70;9.10;;;-5.60;99.90;;;;;;6153749;23;20489;-53
2022/12/15 02:57:12;;;;;;;23.43;9.50;;;-5.60;99.90;;;;;;6154104;23;20385;-61
2022/12/15 02:59:54;;;;;;;10.20;7.63;;;-5.60;99.90;;;;;;6153341;23;20431;-58
2022/12/15 03:02:27;;;;;;;20.63;12.07;;;-5.60;99.90;;;;;;6152947;23;20391;-62
2022/12/15 03:04:55;;;;;;;13.73;10.30;;;-5.60;99.90;;;;;;6153069;23;20387;-59
2022/12/15 03:07:26;;;;;;;22.40;13.60;;;-5.70;99.90;;;;;;6153317;23;20442;-56
2022/12/15 03:09:54;;;;;;;13.97;9.77;;;-5.60;99.90;;;;;;6153576;23;20387;-56
2022/12/15 03:12:24;;;;;;;14.17;10.70;;;-5.60;99.90;;;;;;6153397;23;20422;-60
2022/12/15 03:14:56;;;;;;;11.00;8.67;;;-5.60;99.90;;;;;;6152660;23;20389;-57
2022/12/15 03:17:25;;;;;;;14.33;8.03;;;-5.70;99.90;;;;;;6152881;23;20398;-54
2022/12/15 03:19:51;;;;;;;18.20;12.33;;;-5.60;99.90;;;;;;6152827;23;20407;-60
2022/12/15 03:22:18;;;;;;;11.80;9.23;;;-5.60;99.90;;;;;;6152404;23;20412;-59
2022/12/15 03:24:48;;;;;;;24.20;10.30;;;-5.60;99.90;;;;;;6153407;23;20786;-60
2022/12/15 03:27:17;;;;;;;23.80;12.00;;;-5.60;99.90;;;;;;6152900;23;20452;-58
2022/12/15 03:29:45;;;;;;;24.63;15.37;;;-5.60;99.90;;;;;;6175194;23;20425;-57
2022/12/15 03:32:12;;;;;;;10.23;5.80;;;-5.60;99.90;;;;;;6182916;23;20405;-53
2022/12/15 03:34:42;;;;;;;15.73;8.83;;;-5.60;99.90;;;;;;6182718;23;20409;-57
2022/12/15 03:37:09;;;;;;;21.37;11.87;;;-5.60;99.90;;;;;;6182295;23;20440;-61
2022/12/15 03:39:42;;;;;;;19.90;12.80;;;-5.60;99.90;;;;;;6182549;23;20394;-58
2022/12/15 03:42:11;;;;;;;20.63;11.20;;;-5.60;99.90;;;;;;6182951;23;20405;-61
2022/12/15 03:44:40;;;;;;;24.17;9.80;;;-5.60;99.90;;;;;;6179127;23;20394;-60
2022/12/15 03:47:09;;;;;;;15.17;11.80;;;-5.60;99.90;;;;;;6182528;23;20482;-58
2022/12/15 03:49:38;;;;;;;33.80;10.90;;;-5.60;99.90;;;;;;6182890;23;20426;-56
2022/12/15 03:52:08;;;;;;;22.13;7.90;;;-5.60;99.90;;;;;;6182782;23;20809;-63
2022/12/15 03:54:35;;;;;;;11.87;8.93;;;-5.50;99.90;;;;;;6182980;23;20432;-51
2022/12/15 03:57:01;;;;;;;13.67;8.30;;;-5.60;99.90;;;;;;6183897;23;20390;-59
2022/12/15 03:59:28;;;;;;;10.03;9.23;;;-5.60;99.90;;;;;;6183938;23;20444;-55
2022/12/15 04:01:55;;;;;;;19.07;7.67;;;-5.60;99.90;;;;;;6175405;23;20437;-62
2022/12/15 04:04:25;;;;;;;20.60;11.30;;;-5.60;99.90;;;;;;6183267;23;20413;-61
2022/12/15 04:06:59;;;;;;;10.80;8.27;;;-5.60;99.90;;;;;;6183202;23;20416;-48
2022/12/15 04:09:36;;;;;;;10.70;9.47;;;-5.00;99.90;;;;;;6184155;23;20436;-55
2022/12/15 04:12:03;;;;;;;17.50;9.93;;;-5.60;99.90;;;;;;6184263;23;20374;-55
2022/12/15 04:14:32;;;;;;;8.63;6.67;;;-5.60;99.90;;;;;;6184056;23;20393;-53
2022/12/15 04:16:59;;;;;;;21.70;9.87;;;-5.70;99.90;;;;;;6183396;23;20390;-66
2022/12/15 04:22:11;;;;;;;8.20;7.50;;;-5.50;99.90;;;;;;6178244;23;20409;-58
2022/12/15 05:33:37;;;;;;;6.23;4.23;;;-6.90;99.90;;;;;;6184638;23;20433;-57
2022/12/15 05:36:05;;;;;;;21.63;6.93;;;-6.90;99.90;;;;;;6184286;23;20398;-53
2022/12/15 05:38:31;;;;;;;17.20;4.80;;;-6.80;99.90;;;;;;6184094;23;20445;-60
2022/12/15 05:40:59;;;;;;;7.33;5.30;;;-6.80;99.90;;;;;;6185060;23;20377;-59
2022/12/15 05:43:28;;;;;;;12.57;8.23;;;-6.80;99.90;;;;;;6185215;23;20401;-59
2022/12/15 05:45:56;;;;;;;6.87;5.20;;;-6.80;99.90;;;;;;6185029;23;20445;-61
2022/12/15 05:48:23;;;;;;;14.57;8.53;;;-6.70;99.90;;;;;;6184765;23;20426;-57
2022/12/15 05:50:50;;;;;;;15.67;8.10;;;-6.70;99.90;;;;;;6184574;23;20406;-56
2022/12/15 05:53:17;;;;;;;11.30;9.60;;;-6.70;99.90;;;;;;6184564;23;20378;-59
2022/12/15 05:55:44;;;;;;;12.03;6.00;;;-6.70;99.90;;;;;;6184500;23;20406;-57
2022/12/15 05:58:11;;;;;;;14.10;7.63;;;-6.70;99.90;;;;;;6184908;23;20410;-61
2022/12/15 06:00:38;;;;;;;16.33;7.33;;;-6.70;99.90;;;;;;6184889;23;20402;-58
2022/12/15 06:03:06;;;;;;;20.63;11.37;;;-6.70;99.90;;;;;;6184772;23;20413;-56
2022/12/15 06:05:33;;;;;;;6.23;4.87;;;-6.70;99.90;;;;;;6184707;23;20366;-57
2022/12/15 06:08:00;;;;;;;20.90;8.77;;;-6.70;99.90;;;;;;6182406;23;20425;-61
2022/12/15 06:10:27;;;;;;;9.97;4.50;;;-6.70;99.90;;;;;;6185028;23;20413;-56
2022/12/15 06:12:55;;;;;;;11.33;6.10;;;-6.60;99.90;;;;;;6184949;23;20386;-57
2022/12/15 06:15:22;;;;;;;10.80;6.60;;;-6.50;99.90;;;;;;6184682;23;20426;-53
2022/12/15 06:17:49;;;;;;;15.03;7.97;;;-6.50;99.90;;;;;;6184408;23;20377;-56
2022/12/15 06:20:17;;;;;;;18.90;12.00;;;-6.50;99.90;;;;;;6183836;23;20402;-57
2022/12/15 06:22:44;;;;;;;10.30;4.67;;;-6.50;99.90;;;;;;6183596;23;20445;-60
2022/12/15 06:25:11;;;;;;;8.87;6.73;;;-6.50;99.90;;;;;;6183880;23;20420;-55
2022/12/15 06:27:38;;;;;;;14.03;7.50;;;-6.40;99.90;;;;;;6183932;23;20426;-61
2022/12/15 06:30:06;;;;;;;13.40;7.30;;;-6.40;99.90;;;;;;6183971;23;20398;-62
2022/12/15 06:32:35;;;;;;;7.50;6.80;;;-6.50;99.90;;;;;;6184196;23;20396;-60
2022/12/15 06:35:02;;;;;;;26.83;10.50;;;-6.50;99.90;;;;;;6183621;23;20477;-58
2022/12/15 06:37:33;;;;;;;8.80;7.10;;;-6.60;99.90;;;;;;6183602;23;20406;-60
2022/12/15 06:40:00;;;;;;;13.57;5.70;;;-6.00;99.90;;;;;;6183970;23;20434;-59
2022/12/15 06:42:30;;;;;;;13.60;5.37;;;-6.70;99.90;;;;;;6184625;23;20410;-56
2022/12/15 06:44:57;;;;;;;28.03;8.23;;;-6.70;99.90;;;;;;6184091;23;20402;-55
2022/12/15 06:47:24;;;;;;;7.50;4.07;;;-6.80;99.90;;;;;;6175099;23;20873;-55
2022/12/15 06:49:51;;;;;;;17.37;6.17;;;-6.70;99.90;;;;;;6182559;23;20199;-58
2022/12/15 06:52:18;;;;;;;7.80;3.77;;;-6.80;99.90;;;;;;6183483;23;20414;-53
2022/12/15 06:54:47;;;;;;;9.27;6.60;;;-6.80;99.90;;;;;;6183834;23;20387;-52
2022/12/15 06:57:14;;;;;;;6.93;3.27;;;-6.80;99.90;;;;;;6178666;23;20413;-59
2022/12/15 06:59:41;;;;;;;9.77;4.40;;;-6.80;99.90;;;;;;6184061;23;20417;-57
2022/12/15 07:02:16;;;;;;;13.47;8.40;;;-6.70;99.90;;;;;;6184569;23;20398;-60
2022/12/15 07:04:43;;;;;;;12.53;6.23;;;-6.80;99.90;;;;;;6184368;23;20460;-60
2022/12/15 07:07:12;;;;;;;25.50;10.37;;;-6.80;99.90;;;;;;6184241;23;20412;-59
2022/12/15 07:09:39;;;;;;;30.30;9.73;;;-6.80;99.90;;;;;;6183767;23;20457;-52
2022/12/15 07:12:10;;;;;;;8.27;7.40;;;-6.80;99.90;;;;;;6184548;23;20396;-55
2022/12/15 07:14:37;;;;;;;5.00;4.60;;;-6.80;99.90;;;;;;6178558;23;20413;-56
2022/12/15 07:17:04;;;;;;;12.97;7.50;;;-6.90;99.90;;;;;;6184388;23;20382;-56
2022/12/15 07:19:34;;;;;;;14.77;6.27;;;-6.90;99.90;;;;;;6184274;23;20413;-56
2022/12/15 07:22:00;;;;;;;18.37;7.23;;;-6.90;99.90;;;;;;6184569;23;20370;-54
2022/12/15 07:24:27;;;;;;;8.03;6.07;;;-6.90;99.90;;;;;;6183768;23;20417;-58
2022/12/15 07:26:54;;;;;;;10.30;7.67;;;-6.90;99.90;;;;;;6183840;23;20417;-56
2022/12/15 07:29:24;;;;;;;10.23;7.20;;;-7.00;99.90;;;;;;6183897;23;20437;-54
2022/12/15 07:31:54;;;;;;;3.97;3.47;;;-7.00;99.90;;;;;;6183290;23;20509;-54
2022/12/15 07:34:22;;;;;;;19.90;10.33;;;-6.90;99.90;;;;;;6183476;23;20169;-56
2022/12/15 07:36:50;;;;;;;11.33;7.53;;;-6.90;99.90;;;;;;6183906;23;20417;-57
2022/12/15 07:39:20;;;;;;;9.35;6.85;;;-6.90;99.90;;;;;;6183595;23;20437;-54
2022/12/15 07:41:47;;;;;;;9.47;8.70;;;-6.90;99.90;;;;;;6183545;23;20143;-51
2022/12/15 07:44:14;;;;;;;7.13;6.40;;;-6.80;99.90;;;;;;6184175;23;20381;-61
2022/12/15 07:46:45;;;;;;;19.57;5.10;;;-6.90;99.90;;;;;;6183301;23;20420;-53
2022/12/15 07:49:12;;;;;;;11.80;8.77;;;-6.80;99.90;;;;;;6183594;23;20437;-58
2022/12/15 07:51:40;;;;;;;12.03;8.57;;;-6.70;99.90;;;;;;6183669;23;20430;-57
2022/12/15 07:54:06;;;;;;;7.43;6.67;;;-6.80;99.90;;;;;;6180959;23;20445;-52
2022/12/15 07:56:36;;;;;;;16.67;7.87;;;-6.80;99.90;;;;;;6182181;23;20397;-59
2022/12/15 07:59:03;;;;;;;21.17;9.17;;;-6.20;99.90;;;;;;6181959;23;20414;-53
2022/12/15 08:01:30;;;;;;;8.93;5.90;;;-6.80;99.90;;;;;;6183302;23;20409;-57
2022/12/15 08:03:59;;;;;;;5.10;4.67;;;-6.80;99.90;;;;;;6183043;23;20418;-58
2022/12/15 08:06:27;;;;;;;18.00;6.53;;;-6.80;99.90;;;;;;6183212;23;20405;-60
2022/12/15 08:08:57;;;;;;;18.30;5.73;;;-6.80;99.90;;;;;;6182926;23;20426;-58
2022/12/15 08:11:24;;;;;;;19.13;11.33;;;-6.80;99.90;;;;;;6183182;23;20426;-61
2022/12/15 08:13:51;;;;;;;18.03;7.40;;;-6.60;99.90;;;;;;6177201;23;20474;-53
2022/12/15 08:16:19;;;;;;;11.03;6.30;;;-6.70;99.90;;;;;;6182817;23;20418;-54
2022/12/15 08:18:46;;;;;;;8.83;6.70;;;-6.60;99.90;;;;;;6183750;23;20418;-57
2022/12/15 08:21:14;;;;;;;16.60;9.27;;;-6.60;99.90;;;;;;6177365;23;20406;-56
2022/12/15 08:23:41;;;;;;;12.40;9.37;;;-6.60;99.90;;;;;;6183853;23;20155;-58
2022/12/15 08:26:10;;;;;;;8.93;7.13;;;-6.50;99.90;;;;;;6178209;23;20405;-58
2022/12/15 08:28:41;;;;;;;8.27;6.53;;;-6.50;99.90;;;;;;6180044;23;20441;-55
2022/12/15 08:31:10;;;;;;;14.67;7.03;;;-5.80;99.90;;;;;;6182596;23;20398;-59
2022/12/15 08:33:38;;;;;;;21.47;9.90;;;-6.50;99.90;;;;;;6183274;23;20429;-60
2022/12/15 08:36:07;;;;;;;14.73;6.30;;;-6.50;99.90;;;;;;6183768;23;20390;-52
2022/12/15 08:38:38;;;;;;;3.85;3.55;;;-6.60;99.90;;;;;;6183110;23;20420;-60
2022/12/15 08:41:12;;;;;;;14.75;7.07;;;-6.60;99.90;;;;;;6183399;23;20158;-57
2022/12/15 08:43:39;;;;;;;9.93;4.30;;;-7.30;99.90;;;;;;6182879;23;20146;-51
2022/12/15 08:46:06;;;;;;;12.50;6.87;;;-6.70;99.90;;;;;;6183173;23;20390;-60
2022/12/15 08:48:34;;;;;;;16.17;10.80;;;-6.70;99.90;;;;;;6183616;23;20409;-58
2022/12/15 08:51:01;;;;;;;14.53;7.63;;;-6.70;99.90;;;;;;6183741;23;20425;-56
2022/12/15 08:53:28;;;;;;;9.97;4.17;;;-6.60;99.90;;;;;;6183605;23;20417;-52
2022/12/15 08:56:02;;;;;;;7.73;4.80;;;-6.50;99.90;;;;;;6183240;23;20433;-58
2022/12/15 08:58:29;;;;;;;13.87;7.53;;;-6.50;99.90;;;;;;6183873;23;20373;-53
2022/12/15 09:01:00;;;;;;;11.30;5.83;;;-6.40;99.90;;;;;;6185388;23;20478;-53
2022/12/15 09:03:27;;;;;;;8.20;4.57;;;-6.40;99.90;;;;;;6182012;23;20401;-58
2022/12/15 09:05:56;;;;;;;19.53;7.80;;;-6.30;99.90;;;;;;6184947;23;20429;-55
2022/12/15 09:08:23;;;;;;;8.97;6.10;;;-6.30;99.90;;;;;;6185312;23;20410;-54
2022/12/15 09:10:51;;;;;;;11.20;9.37;;;-6.20;99.90;;;;;;6185354;23;20406;-57
2022/12/15 09:13:21;;;;;;;18.03;10.40;;;-6.10;99.90;;;;;;6185774;23;20441;-52
2022/12/15 09:15:56;;;;;;;12.23;11.03;;;-6.00;99.90;;;;;;6185630;23;20381;-60
2022/12/15 09:18:23;;;;;;;50.90;11.13;;;-6.00;99.90;;;;;;6181071;23;20442;-55
2022/12/15 09:20:51;;;;;;;17.83;10.10;;;-5.90;99.90;;;;;;6185835;23;20393;-54
2022/12/15 09:23:20;;;;;;;21.93;9.87;;;-5.90;99.90;;;;;;6185906;23;20421;-46
2022/12/15 09:25:47;;;;;;;16.10;9.30;;;-5.80;99.90;;;;;;6180220;23;20394;-53
2022/12/15 09:28:14;;;;;;;5.97;5.47;;;-5.70;99.90;;;;;;6185722;23;20390;-50
2022/12/15 09:30:42;;;;;;;16.93;8.33;;;-5.60;99.90;;;;;;6185378;23;20441;-52
2022/12/15 09:33:12;;;;;;;22.13;10.07;;;-5.50;99.90;;;;;;6185190;23;20432;-59
2022/12/15 09:35:40;;;;;;;20.37;11.17;;;-5.50;99.90;;;;;;6184913;23;20397;-57
2022/12/15 09:38:07;;;;;;;15.97;10.33;;;-5.50;99.90;;;;;;6184998;23;20471;-58
2022/12/15 09:40:34;;;;;;;4.43;4.00;;;-5.40;99.90;;;;;;6184366;23;20424;-59
2022/12/15 09:43:01;;;;;;;20.50;8.37;;;-5.30;99.90;;;;;;6184601;23;20390;-58
2022/12/15 09:45:37;;;;;;;19.93;10.67;;;-5.30;99.90;;;;;;6184261;23;20416;-55
2022/12/15 09:48:12;;;;;;;13.87;6.77;;;-5.20;99.90;;;;;;6184239;23;20401;-58
2022/12/15 09:50:40;;;;;;;16.27;8.97;;;-5.10;99.90;;;;;;6184339;23;20421;-58
2022/12/15 09:53:12;;;;;;;11.83;5.73;;;-5.00;99.90;;;;;;6184018;23;20393;-61
2022/12/15 09:55:39;;;;;;;9.63;8.63;;;-4.90;99.90;;;;;;6184474;23;20413;-57
2022/12/15 09:58:15;;;;;;;12.03;6.00;;;-4.70;99.90;;;;;;6183307;23;20429;-56
2022/12/15 10:00:46;;;;;;;19.07;7.53;;;-4.50;99.90;;;;;;6184258;23;20378;-58
2022/12/15 10:03:37;;;;;;;16.80;7.67;;;-4.20;99.90;;;;;;6183978;23;20414;-57
2022/12/15 10:06:07;;;;;;;18.93;8.90;;;-3.90;99.90;;;;;;6183835;23;20374;-53
2022/12/15 10:08:38;;;;;;;20.33;5.67;;;-3.60;99.90;;;;;;6184413;23;20437;-56
2022/12/15 10:11:16;;;;;;;27.97;11.20;;;-3.10;99.90;;;;;;6184490;23;20378;-57
2022/12/15 10:13:51;;;;;;;19.20;9.20;;;-2.60;99.90;;;;;;6184207;23;20453;-58
2022/12/15 10:16:27;;;;;;;19.07;9.90;;;-2.00;99.90;;;;;;6184399;23;20395;-55
2022/12/15 10:19:03;;;;;;;26.53;10.50;;;-1.50;99.90;;;;;;6180582;23;20414;-64
2022/12/15 10:21:33;;;;;;;13.23;9.87;;;-1.00;99.90;;;;;;6184639;23;20386;-57
2022/12/15 10:24:19;;;;;;;23.87;9.93;;;-0.90;99.90;;;;;;6184205;23;20401;-58
2022/12/15 10:26:52;;;;;;;16.17;10.87;;;-1.20;99.90;;;;;;6184354;23;20667;-56
2022/12/15 10:29:31;;;;;;;21.73;9.60;;;-1.50;99.90;;;;;;6176340;23;20448;-63
2022/12/15 10:32:16;;;;;;;20.20;10.60;;;-1.80;99.90;;;;;;6173601;23;20712;-62
2022/12/15 10:34:44;;;;;;;21.00;8.40;;;-2.00;99.90;;;;;;6183372;23;20405;-61
2022/12/15 10:37:16;;;;;;;17.60;8.30;;;-2.10;99.90;;;;;;6174990;23;20420;-60
2022/12/15 10:39:45;;;;;;;25.23;11.33;;;-2.20;99.90;;;;;;6184025;23;20394;-58
2022/12/15 10:42:19;;;;;;;22.60;9.23;;;-2.30;99.90;;;;;;6184416;23;20410;-57
2022/12/15 10:44:48;;;;;;;42.27;15.50;;;-2.30;99.90;;;;;;6184753;23;20417;-59
2022/12/15 10:47:21;;;;;;;17.97;9.40;;;-2.30;99.90;;;;;;6184215;23;20892;-56
2022/12/15 10:49:53;;;;;;;18.23;7.20;;;-2.40;99.90;;;;;;6184434;23;20460;-54
2022/12/15 10:52:27;;;;;;;16.60;10.63;;;-2.50;99.90;;;;;;6184552;23;20438;-55
2022/12/15 10:54:55;;;;;;;15.70;10.23;;;-2.50;99.90;;;;;;6184744;23;20434;-51
2022/12/15 10:57:27;;;;;;;18.77;9.30;;;-2.60;99.90;;;;;;6183570;23;20402;-53
2022/12/15 10:59:57;;;;;;;18.53;9.43;;;-2.50;99.90;;;;;;6183829;23;20373;-61
2022/12/15 11:02:34;;;;;;;13.20;10.43;;;-2.60;99.90;;;;;;6184469;23;20510;-57
2022/12/15 11:05:16;;;;;;;14.90;7.80;;;-2.60;99.90;;;;;;6184751;23;20378;-59
2022/12/15 11:07:46;;;;;;;18.27;10.57;;;-2.60;99.90;;;;;;6184570;23;20374;-56
2022/12/15 11:10:22;;;;;;;31.33;9.90;;;-2.50;99.90;;;;;;6184334;23;20445;-56
2022/12/15 11:13:11;;;;;;;20.53;10.50;;;-2.50;99.90;;;;;;6183423;23;20394;-59
2022/12/15 11:15:46;;;;;;;11.77;7.80;;;-2.40;99.90;;;;;;6183716;23;20410;-60
2022/12/15 11:18:25;;;;;;;14.97;9.80;;;-2.30;99.90;;;;;;6183465;23;20366;-56
2022/12/15 11:20:59;;;;;;;15.03;9.00;;;-2.30;99.90;;;;;;6182721;23;20433;-56
2022/12/15 11:23:39;;;;;;;33.43;10.63;;;-2.20;99.90;;;;;;6183786;23;20370;-58
2022/12/15 11:26:20;;;;;;;15.97;11.90;;;-2.10;99.90;;;;;;6182614;23;20438;-58
2022/12/15 11:28:56;;;;;;;23.50;10.50;;;-2.10;99.90;;;;;;6182601;23;20393;-59
2022/12/15 11:31:32;;;;;;;19.30;9.10;;;-2.20;99.90;;;;;;6181590;23;20426;-57
2022/12/15 11:34:00;;;;;;;17.80;9.50;;;-2.20;99.90;;;;;;6182644;23;20374;-57
2022/12/15 11:36:52;;;;;;;21.23;10.60;;;-2.10;99.90;;;;;;6182524;23;20420;-58
2022/12/15 11:39:28;;;;;;;15.40;8.53;;;-2.10;99.90;;;;;;6182256;23;20405;-58
2022/12/15 11:41:59;;;;;;;22.53;9.77;;;-2.00;99.90;;;;;;6182976;23;20472;-56
2022/12/15 11:44:31;;;;;;;27.77;11.90;;;-1.90;99.90;;;;;;6182606;23;20386;-59
2022/12/15 11:47:10;;;;;;;14.93;8.80;;;-1.90;99.90;;;;;;6182100;23;20440;-57
2022/12/15 11:50:12;;;;;;;26.33;13.00;;;-1.80;99.90;;;;;;6182341;23;20449;-60
2022/12/15 11:52:54;;;;;;;22.50;11.93;;;-1.70;99.90;;;;;;6182076;23;20413;-61
2022/12/15 11:55:28;;;;;;;30.17;12.03;;;-1.60;99.90;;;;;;6182689;23;20410;-61
2022/12/15 11:58:11;;;;;;;20.90;11.10;;;-1.50;99.90;;;;;;6182655;23;20381;-60
2022/12/15 12:00:50;;;;;;;14.97;9.03;;;-1.50;99.90;;;;;;6176966;23;20422;-59
2022/12/15 12:03:26;;;;;;;27.53;12.20;;;-1.40;99.90;;;;;;6182711;23;20413;-61
2022/12/15 12:06:10;;;;;;;16.07;11.80;;;-1.40;99.90;;;;;;6182059;23;20425;-54
2022/12/15 12:09:16;;;;;;;27.70;12.30;;;-1.40;99.90;;;;;;6182109;23;20390;-62
2022/12/15 12:11:49;;;;;;;23.80;9.83;;;-1.30;99.90;;;;;;6159537;23;20413;-61
2022/12/15 12:14:27;;;;;;;23.70;13.40;;;-1.30;99.90;;;;;;6182476;23;20370;-60
2022/12/15 12:17:02;;;;;;;19.83;10.20;;;-1.20;99.90;;;;;;6182367;23;20417;-60
2022/12/15 12:19:34;;;;;;;30.60;12.73;;;-1.20;99.90;;;;;;6182831;23;20404;-55
2022/12/15 12:22:07;;;;;;;25.23;12.87;;;-1.20;99.90;;;;;;6174968;23;20390;-63
2022/12/15 12:24:41;;;;;;;20.57;11.70;;;-1.10;99.90;;;;;;6176186;23;20433;-60
2022/12/15 12:27:13;;;;;;;15.17;10.17;;;-1.10;99.90;;;;;;6181364;23;20385;-59
2022/12/15 12:29:47;;;;;;;20.20;13.27;;;-1.20;99.90;;;;;;6181122;23;20473;-60
2022/12/15 12:32:24;;;;;;;15.63;10.27;;;-1.10;99.90;;;;;;6182731;23;20407;-58
2022/12/15 12:35:01;;;;;;;19.30;13.17;;;-1.20;99.90;;;;;;6183539;23;20393;-60
2022/12/15 12:37:35;;;;;;;15.13;10.10;;;-1.20;99.90;;;;;;6183862;23;20405;-61
2022/12/15 12:40:17;;;;;;;15.47;10.00;;;-1.20;99.90;;;;;;6183810;23;20702;-56
2022/12/15 12:42:51;;;;;;;15.67;8.50;;;-1.10;99.90;;;;;;6184390;23;20386;-60
2022/12/15 12:45:21;;;;;;;23.77;13.43;;;-1.00;99.90;;;;;;6178270;23;20426;-60
2022/12/15 12:48:00;;;;;;;20.73;10.07;;;-1.00;99.90;;;;;;6184660;23;20464;-60
2022/12/15 12:50:30;;;;;;;25.10;11.63;;;-1.00;99.90;;;;;;6184169;23;20487;-57
2022/12/15 12:53:02;;;;;;;21.63;10.83;;;-1.00;99.90;;;;;;6184093;23;20405;-60
2022/12/15 12:55:44;;;;;;;19.90;11.20;;;-0.90;99.90;;;;;;6184297;23;20390;-57
2022/12/15 12:58:50;;;;;;;36.83;12.53;;;-1.00;99.90;;;;;;6183640;23;20417;-57
2022/12/15 13:01:37;;;;;;;19.93;10.40;;;-1.00;99.90;;;;;;6183487;23;20401;-57
2022/12/15 13:04:36;;;;;;;20.70;11.60;;;-1.00;99.90;;;;;;6184181;23;20376;-59
2022/12/15 13:07:06;;;;;;;18.00;8.83;;;-1.10;99.90;;;;;;6183719;23;20429;-58
2022/12/15 13:10:05;;;;;;;25.53;13.73;;;-1.10;99.90;;;;;;6183796;23;20406;-58
2022/12/15 13:12:50;;;;;;;22.07;10.67;;;-1.10;99.90;;;;;;6183920;23;20494;-57
2022/12/15 13:15:45;;;;;;;24.40;15.10;;;-1.00;99.90;;;;;;6183539;23;20405;-57
2022/12/15 13:18:27;;;;;;;22.37;11.73;;;-1.00;99.90;;;;;;6176447;23;20490;-60
2022/12/15 13:21:06;;;;;;;27.73;11.07;;;-1.00;99.90;;;;;;6183646;23;20417;-61
2022/12/15 13:23:43;;;;;;;21.27;10.40;;;-1.00;99.90;;;;;;6183730;23;20370;-58
2022/12/15 13:26:14;;;;;;;21.00;11.63;;;-1.00;99.90;;;;;;6184086;23;20370;-59
2022/12/15 13:28:48;;;;;;;19.87;9.40;;;-0.90;99.90;;;;;;6182762;23;20408;-61
2022/12/15 13:31:28;;;;;;;14.33;10.03;;;-1.00;99.90;;;;;;6182990;23;20440;-61
2022/12/15 13:34:12;;;;;;;17.53;9.87;;;-1.00;99.90;;;;;;6183357;23;20405;-59
2022/12/15 13:36:58;;;;;;;20.93;13.67;;;-0.90;99.90;;;;;;6183440;23;20410;-62
2022/12/15 13:39:50;;;;;;;23.60;10.07;;;-0.90;99.90;;;;;;6183680;23;20410;-59
2022/12/15 13:42:26;;;;;;;19.70;10.77;;;-0.90;99.90;;;;;;6183186;23;20426;-62
2022/12/15 13:44:57;;;;;;;17.67;10.60;;;-0.90;99.90;;;;;;6183202;23;20378;-60
2022/12/15 13:47:28;;;;;;;23.83;11.77;;;-0.90;99.90;;;;;;6183329;23;20425;-64
2022/12/15 13:50:00;;;;;;;21.87;10.90;;;-1.00;99.90;;;;;;6183289;23;20410;-61
2022/12/15 13:52:33;;;;;;;23.90;13.47;;;-0.90;99.90;;;;;;6183642;23;20434;-56
2022/12/15 13:55:02;;;;;;;20.70;8.90;;;-0.90;99.90;;;;;;6183893;23;20386;-55
2022/12/15 13:57:31;;;;;;;18.23;10.30;;;-0.90;99.90;;;;;;6184087;23;20425;-59
2022/12/15 14:00:04;;;;;;;20.93;11.10;;;-1.00;99.90;;;;;;6183290;23;20390;-60
2022/12/15 14:02:36;;;;;;;27.67;12.00;;;-1.00;99.90;;;;;;6182944;23;20380;-59
2022/12/15 14:05:20;;;;;;;23.53;11.00;;;-1.00;99.90;;;;;;6183095;23;20424;-61
2022/12/15 14:07:49;;;;;;;16.00;9.57;;;-1.10;99.90;;;;;;6182899;23;20397;-56
2022/12/15 14:10:19;;;;;;;29.67;12.20;;;-1.00;99.90;;;;;;6182737;23;20511;-59
2022/12/15 14:12:48;;;;;;;27.37;11.97;;;-1.00;99.90;;;;;;6181944;23;20405;-61
2022/12/15 14:15:18;;;;;;;26.33;11.30;;;-1.00;99.90;;;;;;6182871;23;20432;-61
2022/12/15 14:17:50;;;;;;;25.17;9.93;;;-0.90;99.90;;;;;;6182579;23;20390;-62
2022/12/15 14:20:20;;;;;;;9.77;7.70;;;-0.90;99.90;;;;;;6183103;23;20481;-58
2022/12/15 14:22:51;;;;;;;19.23;11.97;;;-1.00;99.90;;;;;;6182404;23;20382;-60
2022/12/15 14:25:20;;;;;;;21.40;10.80;;;-1.00;99.90;;;;;;6182596;23;20453;-61
2022/12/15 14:27:48;;;;;;;27.67;14.33;;;-1.00;99.90;;;;;;6182856;23;20413;-62
2022/12/15 14:30:27;;;;;;;21.87;12.93;;;-1.00;99.90;;;;;;6183062;23;20449;-61
2022/12/15 14:32:58;;;;;;;28.90;14.13;;;-0.90;99.90;;;;;;6183340;23;20390;-59
2022/12/15 14:35:29;;;;;;;14.77;10.20;;;-1.00;99.90;;;;;;6183048;23;20390;-58
2022/12/15 14:38:00;;;;;;;25.23;11.83;;;-1.00;99.90;;;;;;6183332;23;20442;-66
2022/12/15 14:40:28;;;;;;;18.80;12.87;;;-1.10;99.90;;;;;;6182801;23;20385;-62
2022/12/15 14:42:55;;;;;;;24.20;11.83;;;-1.10;99.90;;;;;;6182281;23;20414;-58
2022/12/15 14:45:27;;;;;;;22.10;11.53;;;-1.00;99.90;;;;;;6182718;23;20441;-61
2022/12/15 14:47:59;;;;;;;21.30;11.93;;;-1.10;99.90;;;;;;6181560;23;20426;-61
2022/12/15 14:50:26;;;;;;;21.00;11.73;;;-1.10;99.90;;;;;;6181814;23;20485;-61
2022/12/15 14:52:57;;;;;;;25.80;16.60;;;-1.10;99.90;;;;;;6181904;23;20405;-61
2022/12/15 14:55:32;;;;;;;26.87;15.03;;;-1.10;99.90;;;;;;6181291;23;20402;-61
2022/12/15 14:58:00;;;;;;;16.60;10.37;;;-1.10;99.90;;;;;;6181152;23;20395;-58
2022/12/15 15:00:31;;;;;;;23.90;13.70;;;-1.20;99.90;;;;;;6181925;23;20392;-57
2022/12/15 15:03:21;;;;;;;25.80;12.77;;;-1.20;99.90;;;;;;6181375;23;20386;-60
2022/12/15 15:05:51;;;;;;;27.03;13.67;;;-1.20;99.90;;;;;;6181195;23;20394;-60
2022/12/15 15:08:27;;;;;;;14.90;9.13;;;-1.20;99.90;;;;;;6181983;23;20397;-62
2022/12/15 15:10:56;;;;;;;19.73;13.17;;;-1.20;99.90;;;;;;6181150;23;20445;-59
2022/12/15 15:13:26;;;;;;;28.53;13.20;;;-1.20;99.90;;;;;;6181508;23;20413;-60
2022/12/15 15:16:00;;;;;;;17.60;9.67;;;-1.30;99.90;;;;;;6181021;23;20449;-58
2022/12/15 15:18:29;;;;;;;21.80;13.20;;;-1.30;99.90;;;;;;6181436;23;20430;-61
2022/12/15 15:21:01;;;;;;;15.30;9.40;;;-1.30;99.90;;;;;;6181287;23;20413;-59
2022/12/15 15:23:29;;;;;;;24.70;11.60;;;-1.30;99.90;;;;;;6180752;23;20377;-62